All Lego sets with set number 41000 to 42000

Sort on
Set TitlePriceDifferenceAdded
Water Scooter Fun (41000)€ 5.49- € 0.50 (8%)2012-12-17
Rehearsal Stage (41004)€ 24.95+ € 4.96 (25%)2012-12-17
Stephanie's Soccer Practice (41011)€ 14.95+ € 4.96 (50%)2012-12-17
Stephanie's New Born Lamb (41029)€ 9.95- € 0.04 (0%)2013-12-27
Andrea’s Mountain Hut (41031)€ 19.45+ € 9.46 (95%)2014-05-31
First Aid Jungle Bike (41032)€ 15.99- € 1.88 (11%)2014-05-31
Turtle's Little Paradise (41041)€ 5.95+ € 1.46 (33%)2013-12-27
Tiger's Beautiful Temple (41042)€ 18.66+ € 14.17 (316%)2013-12-27
Macaw's Fountain (41044)€ 4.95+ € 0.46 (10%)2014-05-14
Brown Bear's River (41046)€ 4.95+ € 0.46 (10%)2014-05-14
Heartlake Shopping Mall (41058)€ 109.95- € 0.11 (0%)2014-05-31
Jasmine's Exotic Palace (41061)€ 16.81- € 10.70 (39%)2014-12-23
Elsa’s Sparkling Ice Castle (41062)€ 39.99- € 8.16 (17%)2014-12-23
Ariel’s Undersea Palace (41063)€ 64.99- € 3.79 (6%)2014-12-23
Rapunzel's Best Day Ever (41065)€ 16.81- € 9.49 (36%)2016-05-26
Anna & Kristoff’s Sleigh Adventure (41066)€ 20.98- € 13.41 (39%)2015-12-04
Belle's Enchanted Castle (41067)€ 39.99- € 25.78 (39%)2016-05-26
Arendelle Castle Celebration (41068)€ 34.67- € 34.11 (50%)2015-12-04
Treasure’s Day at the Pool (41069)€ 5.72- € 3.90 (41%)2015-12-15
Aira's Creative Workshop (41071)€ 11.56- € 2.19 (16%)2015-03-01
Naida's Epic Adventure Ship (41073)€ 26.87- € 7.52 (22%)2015-03-01
The Elves’ Treetop Hideaway (41075)€ 49.99- € 5.03 (9%)2015-03-01
Heartlake Hair Salon (41093)€ 32.95- € 1.44 (4%)2014-12-25
Heartlake Lighthouse (41094)€ 37.25- € 17.77 (32%)2014-12-25
Emma’s House (41095)€ 59.99- € 22.55 (27%)2014-12-25
Heartlake Hot Air Balloon (41097)€ 23.14- € 11.25 (33%)2014-12-25
Emma’s Tourist Kiosk (41098)€ 8.95- € 4.80 (35%)2015-06-01
Heartlake Skate Park (41099)€ 17.99- € 6.76 (27%)2015-06-01
Heartlake Grand Hotel (41101)€ 86.72- € 50.86 (37%)2015-06-01
LEGO® Friends Advent Calendar (41102)€ 23.95+ € 5.01 (26%)2015-09-01
Pop Star Recording Studio (41103)€ 14.99- € 2.88 (16%)2015-06-01
Pop Star Dressing Room (41104)€ 29.99- € 4.40 (13%)2015-06-01
Pop Star Show Stage (41105)€ 42.95- € 5.20 (11%)2015-06-01
Pop Star Tour Bus (41106)€ 39.99- € 28.79 (42%)2015-06-01
Heartlake Airport (41109)€ 89.95- € 13.23 (13%)2015-06-01
Birthday Party (41110)€ 15.98- € 8.77 (35%)2015-12-15
Party Train (41111)€ 8.95- € 3.42 (28%)2015-12-15
Party Cakes (41112)€ 5.99+ € 0.50 (9%)2015-12-15
Party Gift Shop (41113)€ 3.99- € 1.50 (27%)2015-12-15
Party Styling (41114)€ 5.95+ € 0.46 (8%)2015-12-15
Emma's Creative Workshop (41115)€ 9.99- € 2.33 (19%)2015-12-19
Olivia's Exploration Car (41116)€ 14.99- € 2.81 (16%)2015-12-19
Pop Star TV Studio (41117)€ 11.99- € 12.66 (51%)2015-12-19
Heartlake Supermarket (41118)€ 27.88- € 13.22 (32%)2015-12-19
Heartlake Cupcake Café (41119)€ 28.47- € 19.48 (41%)2015-12-19
Adventure Camp Archery (41120)€ 9.99- € 2.38 (19%)2015-12-15
Adventure Camp Rafting (41121)€ 24.95- € 9.44 (27%)2015-12-15
Adventure Camp Tree House (41122)€ 52.04- € 30.50 (37%)2015-12-15
Foal's Washing Station (41123)€ 7.09- € 4.74 (40%)2016-05-29
Heartlake Puppy Daycare (41124)€ 21.02- € 11.82 (36%)2016-05-27
Horse Vet Trailer (41125)€ 28.91- € 17.07 (37%)2016-05-27
Heartlake Riding Club (41126)€ 40.48- € 25.21 (38%)2016-05-27
Amusement Park Arcade (41127)€ 10.93- € 6.14 (36%)2016-05-27
Amusement Park Space Ride (41128)€ 15.13- € 8.51 (36%)2016-05-27
Amusement Park Hot Dog Van (41129)€ 21.02- € 11.82 (36%)2016-05-27
Amusement Park Roller Coaster (41130)€ 79.95- € 38.31 (32%)2016-05-27
LEGO® Friends Advent Calendar (41131)€ 14.99- € 8.55 (36%)2016-08-31
Heartlake Party Shop (41132)€ 28.91- € 3.96 (12%)2016-05-29
Amusement Park Bumper Cars (41133)€ 28.91- € 17.12 (37%)2016-05-29
Heartlake Performance School (41134)€ 86.75- € 5.32 (6%)2016-05-29
Daisy’s Beauty Salon (41140)€ 6.22- € 6.15 (50%)2015-12-15
Pumpkin’s Royal Carriage (41141)€ 9.18- € 3.19 (26%)2015-12-15
Palace Pets Royal Castle (41142)€ 15.85- € 11.54 (42%)2015-12-19
Berry's Kitchen (41143)€ 5.77- € 0.13 (2%)2016-12-01
Best everPetite's Royal Stable (41144)€ 9.95- € 0.67 (6%)2016-12-01
Anna's Snow Adventure (41147)€ 17.48- € 6.14 (26%)2016-12-01
Best everElsa's Magical Ice Palace (41148)€ 54.98- € 21.80 (28%)2016-12-01
Moana's Island Adventure (41149)€ 24.98- € 4.54 (15%)2016-12-01
Moana's Ocean Voyage (41150)€ 34.98- € 12.26 (26%)2016-12-01
Emily Jones & the Baby Wind Dragon (41171)€ 13.95+ € 2.44 (21%)2016-03-01
The Water Dragon Adventure (41172)€ 16.95- € 6.08 (26%)2016-03-01
Fire Dragon's Lava Cave (41175)€ 32.99- € 11.80 (26%)2016-03-01
The Secret Market Place (41176)€ 48.93- € 15.06 (24%)2016-03-01
The Precious Crystal Mine (41177)€ 19.99- € 12.89 (39%)2016-05-26
Queen Dragon's Rescue (41179)€ 55.78- € 23.14 (29%)2016-05-26
Ragana's Magic Shadow Castle (41180)€ 69.37- € 29.29 (30%)2016-05-26
Best everBatgirl™ Batjet Chase (41230)€ 20.95- € 2.67 (11%)2016-12-01
Best everHarley Quinn™ to the rescue (41231)€ 26.99- € 2.53 (9%)2016-12-01
Best everSuper Hero High School (41232)€ 64.42- € 24.17 (27%)2016-12-01
Best everLashina™ Tank (41233)€ 12.95- € 1.22 (9%)2016-12-01
Best everBumblebee™ Helicopter (41234)€ 12.06- € 2.11 (15%)2016-12-01
Best everWonder Woman™ Dorm (41235)€ 19.99- € 3.63 (15%)2016-12-01
Best everPuppy Championship (41300)€ 16.95- € 4.30 (20%)2016-12-01
Puppy Parade (41301)€ 12.98- € 2.37 (15%)2016-12-01
Puppy Pampering (41302)€ 4.62- € 0.09 (2%)2016-12-01
Puppy Playground (41303)€ 4.48- € 0.23 (5%)2016-12-01
Puppy Treats & Tricks (41304)€ 4.62- € 0.09 (2%)2016-12-01
Emma's Photo Studio (41305)€ 8.95- € 1.66 (16%)2016-12-01
Mia's Beach Scooter (41306)€ 8.49- € 2.12 (20%)2016-12-01
Olivia's Creative Lab (41307)€ 8.95- € 1.66 (16%)2016-12-01
Stephanie's Friendship Cakes (41308)€ 8.98- € 1.63 (15%)2016-12-01
Andrea's Musical Duet (41309)€ 8.99- € 1.62 (15%)2016-12-01
Heartlake Gift Delivery (41310)€ 16.95- € 4.29 (20%)2016-12-01
Heartlake Pizzeria (41311)€ 22.98- € 6.52 (22%)2016-12-01
Best everHeartlake Sports Center (41312)€ 32.88- € 14.32 (30%)2016-12-01
Heartlake Summer Pool (41313)€ 38.99- € 25.92 (40%)2016-12-01
Stephanie's House (41314)€ 53.98- € 22.74 (30%)2016-12-01
FLAIN (41500)€ 14.76+ € 9.77 (196%)2014-03-01
Gox (41536)€ 6.95+ € 2.82 (68%)2015-06-01
Jinky (41537)€ 4.28+ € 0.15 (4%)2015-06-01
Kamzo (41538)€ 6.95+ € 2.82 (68%)2015-06-01
Spugg (41542)€ 6.95+ € 2.82 (68%)2015-06-01
Turg (41543)€ 6.95+ € 2.82 (68%)2015-06-01
Tungster (41544)€ 6.95+ € 2.82 (68%)2015-06-01
Mixadel (41558)€ 3.90- € 0.05 (1%)2016-01-31
Gobbol (41572)€ 3.99+ € 0.53 (15%)2016-10-01
Sweepz (41573)€ 3.99+ € 0.53 (15%)2016-10-01
Compax (41574)€ 3.99+ € 0.53 (15%)2016-10-01
Cobrax (41575)€ 3.99+ € 0.53 (15%)2016-10-01
Spinza (41576)€ 3.99+ € 0.53 (15%)2016-10-01
Mysto (41577)€ 3.99+ € 0.53 (15%)2016-10-01
Camsta (41579)€ 3.99+ € 0.53 (15%)2016-10-01
Myke (41580)€ 3.99+ € 0.53 (15%)2016-10-01
4x4 Crawler Exclusive Edition (41999)€ 749.99+ € 570.00 (317%)2013-08-01

Also show unavailable sets